createdAt,value
2024-01-25T00:01:05.893Z,50.00
2024-01-25T00:03:35.558Z,49.80
2024-01-25T00:06:04.853Z,49.80
2024-01-25T00:08:33.573Z,49.40
2024-01-25T00:11:03.947Z,49.80
2024-01-25T00:13:32.843Z,49.90
2024-01-25T00:16:02.060Z,49.90
2024-01-25T00:22:30.330Z,49.80
2024-01-25T00:25:00.529Z,49.90
2024-01-25T00:27:31.059Z,49.60
2024-01-25T00:30:00.481Z,49.50
2024-01-25T00:32:28.860Z,49.70
2024-01-25T00:35:06.341Z,49.80
2024-01-25T00:37:35.748Z,49.60
2024-01-25T00:40:05.634Z,49.60
2024-01-25T00:42:41.511Z,49.70
2024-01-25T00:45:11.119Z,49.80
2024-01-25T00:47:40.743Z,49.30
2024-01-25T00:50:11.902Z,49.10
2024-01-25T00:52:41.601Z,49.10
2024-01-25T00:55:12.624Z,49.10
2024-01-25T00:57:45.288Z,48.80
2024-01-25T01:00:16.724Z,48.70
2024-01-25T01:02:47.025Z,48.90
2024-01-25T01:05:17.823Z,48.50
2024-01-25T01:07:47.462Z,48.30
2024-01-25T01:10:16.940Z,48.40
2024-01-25T01:12:50.905Z,48.20
2024-01-25T01:15:20.281Z,48.40
2024-01-25T01:17:50.226Z,48.50
2024-01-25T01:20:20.248Z,48.60
2024-01-25T01:22:49.620Z,48.70
2024-01-25T01:25:18.750Z,48.70
2024-01-25T01:27:48.703Z,49.10
2024-01-25T01:30:18.371Z,48.90
2024-01-25T01:32:47.304Z,49.00
2024-01-25T01:35:16.129Z,48.80
2024-01-25T01:37:45.433Z,48.80
2024-01-25T01:40:15.176Z,49.40
2024-01-25T01:42:45.398Z,48.90
2024-01-25T01:45:15.238Z,49.40
2024-01-25T01:47:44.883Z,49.40
2024-01-25T01:50:15.994Z,49.00
2024-01-25T01:52:44.973Z,49.10
2024-01-25T01:55:14.622Z,49.60
2024-01-25T01:57:43.748Z,49.30
2024-01-25T02:00:19.927Z,49.60
2024-01-25T02:02:49.475Z,49.50
2024-01-25T02:05:18.855Z,49.90
2024-01-25T02:07:53.275Z,49.50
2024-01-25T02:10:23.037Z,49.80
2024-01-25T02:12:51.897Z,50.10
2024-01-25T02:15:22.872Z,49.80
2024-01-25T02:17:51.659Z,50.20
2024-01-25T02:20:21.201Z,50.20
2024-01-25T02:22:53.345Z,50.00
2024-01-25T02:25:22.437Z,50.50
2024-01-25T02:27:52.073Z,50.20
2024-01-25T02:30:20.668Z,50.60
2024-01-25T02:32:50.004Z,50.30
2024-01-25T02:35:18.529Z,50.30
2024-01-25T02:37:47.031Z,50.90
2024-01-25T02:40:17.910Z,50.10
2024-01-25T02:42:47.124Z,50.40
2024-01-25T02:45:15.660Z,50.80
2024-01-25T02:47:44.472Z,50.80
2024-01-25T02:50:14.453Z,50.80
2024-01-25T02:52:44.203Z,50.20
2024-01-25T02:55:13.803Z,50.30
2024-01-25T02:57:44.607Z,50.50
2024-01-25T03:00:14.691Z,50.40
2024-01-25T03:02:43.433Z,50.50
2024-01-25T03:05:12.117Z,50.60
2024-01-25T03:07:44.412Z,50.70
2024-01-25T03:10:13.564Z,50.70
2024-01-25T03:12:44.139Z,50.90
2024-01-25T03:15:13.527Z,51.10
2024-01-25T03:17:43.649Z,51.10
2024-01-25T03:20:13.848Z,51.40
2024-01-25T03:22:43.703Z,51.20
2024-01-25T03:25:13.548Z,51.40
2024-01-25T03:27:41.942Z,51.00
2024-01-25T03:30:14.121Z,51.00
2024-01-25T03:32:43.714Z,50.90
2024-01-25T03:35:14.331Z,51.20
2024-01-25T03:37:42.973Z,51.10
2024-01-25T03:40:12.456Z,51.40
2024-01-25T03:42:43.282Z,51.30
2024-01-25T03:45:15.411Z,51.30
2024-01-25T03:47:45.659Z,51.70
2024-01-25T03:50:15.361Z,51.30
2024-01-25T03:52:45.145Z,51.70
2024-01-25T03:55:13.895Z,51.70
2024-01-25T03:57:43.273Z,52.00
2024-01-25T04:00:13.423Z,52.00
2024-01-25T04:02:43.794Z,51.90
2024-01-25T04:05:12.563Z,51.80
2024-01-25T04:07:42.714Z,51.50
2024-01-25T04:10:12.157Z,51.80
2024-01-25T04:12:40.808Z,52.50
2024-01-25T04:15:11.488Z,52.20
2024-01-25T04:17:41.058Z,52.00
2024-01-25T04:20:12.109Z,51.80
2024-01-25T04:22:41.364Z,52.30
2024-01-25T04:25:10.573Z,52.00
2024-01-25T04:27:40.336Z,52.10
2024-01-25T04:30:10.091Z,52.10
2024-01-25T04:32:39.598Z,52.30
2024-01-25T04:35:11.849Z,52.40
2024-01-25T04:37:41.523Z,52.10
2024-01-25T04:40:10.963Z,52.40
2024-01-25T04:42:39.909Z,52.30
2024-01-25T04:45:09.686Z,52.50
2024-01-25T04:47:39.921Z,52.50
2024-01-25T04:50:10.339Z,52.40
2024-01-25T04:52:41.054Z,52.20
2024-01-25T04:55:11.000Z,52.50
2024-01-25T04:57:39.528Z,52.20
2024-01-25T05:00:10.464Z,52.30
2024-01-25T05:02:38.958Z,52.30
2024-01-25T05:05:07.618Z,52.50
2024-01-25T05:07:36.815Z,52.40
2024-01-25T05:10:07.257Z,52.30
2024-01-25T05:12:35.881Z,52.50
2024-01-25T05:15:04.828Z,52.20
2024-01-25T05:17:33.728Z,52.30
2024-01-25T05:20:04.168Z,52.10
2024-01-25T05:22:33.048Z,51.70
2024-01-25T05:25:02.494Z,51.70
2024-01-25T05:27:33.180Z,51.70
2024-01-25T05:30:01.840Z,51.30
2024-01-25T05:32:31.403Z,51.60
2024-01-25T05:35:00.752Z,51.50
2024-01-25T05:37:29.830Z,51.50
2024-01-25T05:39:58.697Z,51.60
2024-01-25T05:42:27.755Z,51.70
2024-01-25T05:44:58.023Z,51.40
2024-01-25T05:47:27.387Z,51.30
2024-01-25T05:49:56.403Z,51.60
2024-01-25T05:52:26.146Z,51.40
2024-01-25T05:54:55.176Z,51.40
2024-01-25T05:57:24.370Z,51.40
2024-01-25T05:59:58.320Z,51.30
2024-01-25T06:02:28.617Z,51.20
2024-01-25T06:04:59.806Z,51.10
2024-01-25T06:07:29.828Z,50.90
2024-01-25T06:09:58.921Z,51.10
2024-01-25T06:12:28.558Z,50.90
2024-01-25T06:14:59.288Z,50.60
2024-01-25T06:17:27.887Z,50.60
2024-01-25T06:19:56.914Z,50.50
2024-01-25T06:22:25.853Z,50.60
2024-01-25T06:24:54.469Z,50.70
2024-01-25T06:27:23.538Z,50.60
2024-01-25T06:29:52.931Z,50.30
2024-01-25T06:32:26.712Z,50.60
2024-01-25T06:34:56.280Z,50.30
2024-01-25T06:37:25.418Z,50.00
2024-01-25T06:39:54.746Z,50.00
2024-01-25T06:42:23.916Z,50.30
2024-01-25T06:44:52.654Z,50.00
2024-01-25T06:47:24.293Z,50.10
2024-01-25T06:49:54.089Z,49.60
2024-01-25T06:52:23.301Z,49.70
2024-01-25T06:54:52.646Z,49.70
2024-01-25T06:57:21.013Z,49.30
2024-01-25T06:59:50.008Z,49.50
2024-01-25T07:02:18.990Z,49.50
2024-01-25T07:04:50.024Z,49.50
2024-01-25T07:07:19.074Z,49.20
2024-01-25T07:09:48.267Z,49.00
2024-01-25T07:12:17.456Z,48.90
2024-01-25T07:14:46.209Z,48.80
2024-01-25T07:17:15.174Z,49.00
2024-01-25T07:19:43.887Z,48.60
2024-01-25T07:22:16.353Z,48.90
2024-01-25T07:24:46.055Z,48.70
2024-01-25T07:27:15.164Z,48.50
2024-01-25T07:29:46.608Z,48.60
2024-01-25T07:32:15.950Z,47.90
2024-01-25T07:34:45.257Z,47.80
2024-01-25T07:37:17.092Z,47.50
2024-01-25T07:39:46.044Z,47.90
2024-01-25T07:42:19.450Z,47.80
2024-01-25T07:44:48.021Z,47.70
2024-01-25T07:47:17.022Z,47.90
2024-01-25T07:49:46.188Z,47.50
2024-01-25T07:52:16.565Z,47.70
2024-01-25T07:54:46.425Z,47.90
2024-01-25T07:57:14.906Z,47.90
2024-01-25T07:59:43.606Z,47.80
2024-01-25T08:02:12.534Z,47.50
2024-01-25T09:01:16.989Z,46.80
2024-01-25T09:03:45.586Z,46.20
2024-01-25T09:06:16.510Z,46.70
2024-01-25T09:08:45.601Z,46.70
2024-01-25T09:11:14.948Z,46.40
2024-01-25T09:13:48.591Z,46.40
2024-01-25T09:16:21.356Z,46.40
2024-01-25T09:18:51.465Z,46.20
2024-01-25T09:21:20.261Z,45.90
2024-01-25T09:23:49.015Z,45.50
2024-01-25T09:26:18.024Z,45.50
2024-01-25T09:28:46.889Z,45.50
2024-01-25T09:31:16.645Z,44.90
2024-01-25T09:33:46.956Z,44.50
2024-01-25T09:36:15.751Z,44.10
2024-01-25T09:38:45.076Z,44.10
2024-01-25T09:41:14.355Z,44.80
2024-01-25T09:43:44.539Z,44.40
2024-01-25T09:46:16.627Z,44.30
2024-01-25T09:48:49.150Z,43.90
2024-01-25T09:51:18.515Z,43.80
2024-01-25T09:53:51.792Z,43.70
2024-01-25T09:56:24.102Z,44.10
2024-01-25T09:58:53.915Z,43.70
2024-01-25T10:01:22.831Z,43.60
2024-01-25T10:03:52.945Z,43.30
2024-01-25T10:06:22.094Z,43.20
2024-01-25T10:08:51.155Z,43.00
2024-01-25T10:11:20.378Z,43.00
2024-01-25T10:13:51.886Z,43.30
2024-01-25T10:16:21.900Z,43.00
2024-01-25T10:18:52.768Z,42.70
2024-01-25T10:21:23.006Z,42.90
2024-01-25T10:23:52.670Z,42.60
2024-01-25T10:26:21.441Z,42.70
2024-01-25T10:31:41.323Z,42.60
2024-01-25T10:34:15.702Z,42.70
2024-01-25T10:36:44.954Z,42.60
2024-01-25T10:39:16.014Z,42.70
2024-01-25T10:42:07.282Z,42.50
2024-01-25T10:44:36.072Z,42.60
2024-01-25T10:47:04.732Z,42.80
2024-01-25T10:49:35.878Z,42.90
2024-01-25T10:52:06.584Z,43.10
2024-01-25T10:54:35.825Z,43.00
2024-01-25T10:57:06.824Z,43.20
2024-01-25T10:59:35.285Z,43.20
2024-01-25T11:02:04.348Z,43.20
2024-01-25T11:04:34.653Z,42.90
2024-01-25T11:07:08.758Z,43.00
2024-01-25T11:09:38.486Z,42.90
2024-01-25T11:12:15.160Z,42.80
2024-01-25T11:14:43.826Z,42.30
2024-01-25T11:17:21.508Z,42.10
2024-01-25T11:19:52.688Z,41.90
2024-01-25T11:22:22.118Z,42.00
2024-01-25T11:24:52.165Z,41.80
2024-01-25T11:27:20.537Z,42.00
2024-01-25T11:29:49.338Z,42.10
2024-01-25T11:32:18.261Z,42.40
2024-01-25T11:34:47.132Z,42.00
2024-01-25T11:37:19.006Z,42.00
2024-01-25T11:39:50.058Z,42.00
2024-01-25T11:42:26.274Z,41.90
2024-01-25T11:44:55.534Z,41.80
2024-01-25T11:47:25.509Z,41.80
2024-01-25T11:49:54.135Z,41.90
2024-01-25T11:52:23.960Z,41.80
2024-01-25T11:54:53.056Z,41.70
2024-01-25T11:57:22.318Z,42.00
2024-01-25T11:59:51.272Z,42.30
2024-01-25T12:02:20.869Z,42.20
2024-01-25T12:04:50.232Z,42.20
2024-01-25T12:07:19.618Z,42.60
2024-01-25T12:09:59.723Z,42.50
2024-01-25T12:12:29.627Z,42.70
2024-01-25T12:15:01.697Z,42.60
2024-01-25T12:17:30.532Z,42.30
2024-01-25T12:19:59.629Z,42.50
2024-01-25T12:22:31.197Z,42.10
2024-01-25T12:25:02.312Z,42.60
2024-01-25T12:27:33.656Z,42.40
2024-01-25T12:30:02.274Z,42.50
2024-01-25T12:32:30.556Z,42.50
2024-01-25T12:35:02.226Z,42.40
2024-01-25T12:37:30.893Z,42.60
2024-01-25T12:40:04.625Z,42.10
2024-01-25T12:42:33.075Z,42.40
2024-01-25T12:45:01.756Z,42.00
2024-01-25T12:47:30.606Z,42.00
2024-01-25T12:50:00.053Z,42.00
2024-01-25T12:52:31.927Z,41.80
2024-01-25T12:55:04.418Z,41.90
2024-01-25T12:57:35.404Z,41.80
2024-01-25T13:00:04.936Z,41.80
2024-01-25T13:02:33.709Z,41.90
2024-01-25T13:05:03.652Z,41.70
2024-01-25T13:07:32.953Z,41.90
2024-01-25T13:10:03.436Z,42.10
2024-01-25T13:12:32.404Z,42.30
2024-01-25T13:15:01.169Z,41.90
2024-01-25T13:17:29.754Z,41.70
2024-01-25T13:20:00.057Z,41.70
2024-01-25T13:22:28.595Z,41.90
2024-01-25T13:24:59.247Z,41.70
2024-01-25T13:27:29.588Z,42.00
2024-01-25T13:29:58.404Z,41.80
2024-01-25T13:32:27.038Z,41.70
2024-01-25T13:34:55.720Z,41.90
2024-01-25T13:37:24.955Z,42.00
2024-01-25T13:39:54.107Z,41.80
2024-01-25T13:42:22.512Z,41.90
2024-01-25T13:44:52.580Z,41.90
2024-01-25T13:47:21.372Z,42.00
2024-01-25T13:49:50.356Z,42.40
2024-01-25T13:52:21.152Z,42.30
2024-01-25T13:54:50.842Z,42.00
2024-01-25T13:57:21.648Z,42.00
2024-01-25T13:59:51.920Z,42.50
2024-01-25T14:02:20.192Z,42.70
2024-01-25T14:04:48.745Z,42.60
2024-01-25T14:07:18.253Z,42.80
2024-01-25T14:09:48.198Z,42.80
2024-01-25T14:12:19.099Z,42.90
2024-01-25T14:14:48.425Z,42.60
2024-01-25T14:17:18.856Z,42.30
2024-01-25T14:19:47.439Z,42.70
2024-01-25T14:22:27.352Z,42.60
2024-01-25T14:24:59.906Z,43.10
2024-01-25T14:27:29.064Z,43.00
2024-01-25T14:29:57.704Z,42.90
2024-01-25T14:32:27.900Z,42.80
2024-01-25T14:34:57.217Z,43.10
2024-01-25T14:37:25.571Z,42.70
2024-01-25T14:40:06.835Z,42.80
2024-01-25T14:42:42.981Z,42.80
2024-01-25T14:45:11.494Z,42.90
2024-01-25T14:47:41.282Z,43.10
2024-01-25T14:50:10.084Z,42.80
2024-01-25T14:52:38.710Z,43.10
2024-01-25T14:55:08.867Z,43.00
2024-01-25T14:57:37.236Z,43.10
2024-01-25T15:00:07.347Z,43.00
2024-01-25T15:06:36.830Z,43.80
2024-01-25T15:09:05.487Z,44.00
2024-01-25T15:11:34.360Z,43.70
2024-01-25T15:14:02.864Z,43.70
2024-01-25T15:16:32.088Z,43.90
2024-01-25T15:19:00.405Z,43.90
2024-01-25T15:21:28.849Z,44.10
2024-01-25T15:23:59.540Z,44.00
2024-01-25T15:26:28.047Z,44.10
2024-01-25T15:28:56.891Z,44.30
2024-01-25T15:31:26.488Z,44.20
2024-01-25T15:33:56.583Z,44.80
2024-01-25T15:36:25.943Z,44.70
2024-01-25T15:38:56.385Z,44.90
2024-01-25T15:41:31.025Z,45.00
2024-01-25T15:43:59.772Z,45.00
2024-01-25T15:46:29.124Z,45.50
2024-01-25T15:48:57.675Z,45.20
2024-01-25T15:51:26.437Z,45.30
2024-01-25T15:53:55.006Z,45.50
2024-01-25T15:56:24.369Z,45.90
2024-01-25T15:58:54.774Z,46.10
2024-01-25T16:01:23.395Z,46.40
2024-01-25T16:03:52.664Z,46.20
2024-01-25T16:06:21.721Z,45.90
2024-01-25T16:08:50.457Z,46.50
2024-01-25T16:11:20.229Z,46.30
2024-01-25T16:13:48.751Z,46.10
2024-01-25T16:16:18.875Z,46.30
2024-01-25T16:18:47.631Z,46.20
2024-01-25T16:21:18.397Z,46.30
2024-01-25T16:23:49.698Z,46.10
2024-01-25T16:26:22.456Z,46.10
2024-01-25T16:28:51.095Z,46.10
2024-01-25T16:31:22.223Z,46.10
2024-01-25T16:33:50.886Z,46.00
2024-01-25T16:36:19.955Z,46.20
2024-01-25T16:38:48.463Z,46.40
2024-01-25T16:41:17.276Z,46.60
2024-01-25T16:43:45.499Z,47.00
2024-01-25T16:46:15.055Z,47.00
2024-01-25T16:48:45.035Z,47.10
2024-01-25T16:51:18.496Z,46.80
2024-01-25T16:53:47.289Z,47.30
2024-01-25T16:56:18.771Z,47.30
2024-01-25T16:58:47.290Z,47.20
2024-01-25T17:01:17.868Z,47.60
2024-01-25T17:03:48.030Z,47.40
2024-01-25T17:06:17.044Z,47.50
2024-01-25T17:08:45.493Z,47.50
2024-01-25T17:11:15.601Z,47.50
2024-01-25T17:13:44.325Z,47.80
2024-01-25T17:16:13.343Z,47.90
2024-01-25T17:18:41.841Z,48.10
2024-01-25T17:21:11.977Z,48.00
2024-01-25T17:23:40.803Z,47.80
2024-01-25T17:26:09.089Z,47.90
2024-01-25T17:28:37.559Z,48.30
2024-01-25T17:31:06.641Z,48.30
2024-01-25T17:33:35.537Z,48.10
2024-01-25T17:36:05.953Z,48.60
2024-01-25T17:38:35.750Z,48.70
2024-01-25T17:41:04.522Z,48.50
2024-01-25T17:43:34.051Z,48.40
2024-01-25T17:46:03.234Z,48.30
2024-01-25T17:48:33.009Z,48.50
2024-01-25T17:51:01.966Z,48.50
2024-01-25T17:53:47.006Z,48.80
2024-01-25T17:56:16.044Z,48.70
2024-01-25T17:58:44.860Z,48.60
2024-01-25T18:01:13.355Z,48.90
2024-01-25T18:03:42.233Z,48.60
2024-01-25T18:06:10.991Z,48.90
2024-01-25T18:08:40.338Z,48.60
2024-01-25T18:11:11.825Z,48.80
2024-01-25T18:13:40.576Z,48.90
2024-01-25T18:16:09.362Z,48.50
2024-01-25T18:18:38.064Z,48.40
2024-01-25T18:21:07.288Z,48.50
2024-01-25T18:23:36.653Z,48.60
2024-01-25T18:26:06.022Z,48.50
2024-01-25T18:28:37.034Z,48.50
2024-01-25T18:31:05.746Z,48.30
2024-01-25T18:33:36.316Z,48.40
2024-01-25T18:36:05.217Z,48.30
2024-01-25T18:38:34.341Z,48.40
2024-01-25T18:41:04.442Z,48.50
2024-01-25T18:43:33.142Z,48.40
2024-01-25T18:46:04.773Z,48.30
2024-01-25T18:48:34.374Z,48.60
2024-01-25T18:51:05.510Z,48.60
2024-01-25T18:53:36.389Z,48.90
2024-01-25T18:56:06.279Z,48.40
2024-01-25T18:58:35.951Z,48.60
2024-01-25T19:01:06.805Z,48.30
2024-01-25T19:03:37.475Z,48.60
2024-01-25T19:06:19.905Z,48.70
2024-01-25T19:08:50.314Z,48.50
2024-01-25T19:11:18.714Z,48.70
2024-01-25T19:13:48.010Z,48.50
2024-01-25T19:16:20.033Z,48.70
2024-01-25T19:18:48.604Z,48.30
2024-01-25T19:21:17.017Z,48.40
2024-01-25T19:23:45.779Z,48.50
2024-01-25T19:26:15.346Z,48.60
2024-01-25T19:28:45.519Z,48.40
2024-01-25T19:31:17.502Z,48.80
2024-01-25T19:33:48.912Z,48.60
2024-01-25T19:36:18.609Z,48.50
2024-01-25T19:38:47.639Z,48.30
2024-01-25T19:41:16.151Z,48.40
2024-01-25T19:44:12.820Z,48.30
2024-01-25T19:46:41.826Z,48.50
2024-01-25T19:49:12.509Z,48.60
2024-01-25T19:51:41.132Z,48.60
2024-01-25T19:54:09.601Z,48.30
2024-01-25T19:56:38.646Z,48.90
2024-01-25T19:59:09.723Z,48.60
2024-01-25T20:01:39.048Z,48.80
2024-01-25T20:04:12.318Z,48.50
2024-01-25T20:06:44.373Z,48.80
2024-01-25T20:09:12.971Z,48.60
2024-01-25T20:11:42.776Z,48.90
2024-01-25T20:14:14.647Z,49.20
2024-01-25T20:16:43.238Z,49.30
2024-01-25T20:19:13.094Z,49.20
2024-01-25T20:21:43.870Z,49.30
2024-01-25T20:24:12.124Z,49.50
2024-01-25T20:26:42.007Z,49.70
2024-01-25T20:29:11.160Z,49.70
2024-01-25T20:31:39.998Z,49.60
2024-01-25T20:34:10.052Z,49.70
2024-01-25T20:36:40.988Z,49.50
2024-01-25T20:39:11.098Z,49.70
2024-01-25T20:41:41.652Z,49.40
2024-01-25T21:41:52.907Z,50.70
2024-01-25T21:44:24.063Z,50.90
2024-01-25T21:46:53.542Z,50.90
2024-01-25T21:49:22.334Z,50.80
2024-01-25T21:51:51.562Z,50.90
2024-01-25T21:54:21.985Z,51.10
2024-01-25T21:56:51.065Z,50.90
2024-01-25T21:59:20.553Z,50.80
2024-01-25T22:01:52.649Z,50.90
2024-01-25T22:04:22.467Z,50.90
2024-01-25T22:07:08.439Z,51.10
2024-01-25T22:09:39.538Z,51.00
2024-01-25T22:12:09.609Z,51.20
2024-01-25T22:14:38.734Z,51.20
2024-01-25T22:17:08.331Z,51.00
2024-01-25T22:19:37.686Z,51.30
2024-01-25T22:22:07.231Z,51.20
2024-01-25T22:24:36.105Z,51.50
2024-01-25T22:27:08.158Z,51.20
2024-01-25T22:29:38.669Z,51.20
2024-01-25T22:32:08.783Z,51.50
2024-01-25T22:34:37.917Z,51.30
2024-01-25T22:37:07.450Z,51.40
2024-01-25T22:39:36.441Z,51.20
2024-01-25T22:42:08.770Z,51.50
2024-01-25T22:44:38.053Z,51.10
2024-01-25T22:47:08.369Z,51.20
2024-01-25T22:49:36.729Z,51.20
2024-01-25T22:52:06.566Z,51.30
2024-01-25T22:54:44.621Z,51.30
2024-01-25T22:57:13.615Z,51.50
2024-01-25T22:59:42.295Z,51.40
2024-01-25T23:02:12.957Z,51.30
2024-01-25T23:04:42.261Z,51.30
2024-01-25T23:07:11.457Z,51.40
2024-01-25T23:09:40.002Z,51.20
2024-01-25T23:12:10.284Z,51.20
2024-01-25T23:14:39.388Z,51.40
2024-01-25T23:17:07.669Z,51.30
2024-01-25T23:19:37.761Z,51.20
2024-01-25T23:22:12.300Z,51.40
2024-01-25T23:24:41.716Z,51.10
2024-01-25T23:27:11.911Z,51.00
2024-01-25T23:29:40.314Z,51.50
2024-01-25T23:32:09.242Z,51.50
2024-01-25T23:34:39.583Z,51.40
2024-01-25T23:37:10.051Z,51.50
2024-01-25T23:39:39.183Z,51.40
2024-01-25T23:42:09.060Z,51.30
2024-01-25T23:44:38.328Z,51.40
2024-01-25T23:47:07.784Z,51.10
